Time;durP1;ratioP1;P1;durP2;ratioP2;P2;SDS_P1;SDS_P2;PMS_P1;PMS_P2;Temp;Humidity;BMP_temperature;BMP_pressure;BME280_temperature;BME280_humidity;BME280_pressure;Samples;Min_cycle;Max_cycle;Signal;HPM_P1;HPM_P2
2021/06/23 00:00:44;;;;;;;;;;;25.00;75.90;;;;;;5017061;28;88210;-50
2021/06/23 00:03:10;;;;;;;;;;;25.00;75.90;;;;;;5018657;28;87170;-52
2021/06/23 00:05:35;;;;;;;;;;;25.00;75.90;;;;;;5017266;28;88886;-51
2021/06/23 00:08:01;;;;;;;;;;;24.90;75.80;;;;;;5020608;28;88991;-50
2021/06/23 00:10:26;;;;;;;;;;;24.90;75.90;;;;;;5018097;28;88911;-51
2021/06/23 00:12:53;;;;;;;;;;;24.90;75.90;;;;;;5017234;28;88139;-53
2021/06/23 00:15:19;;;;;;;;;;;24.90;75.80;;;;;;5018261;28;87147;-51
2021/06/23 00:17:45;;;;;;;;;;;24.90;75.90;;;;;;5015633;28;90331;-50
2021/06/23 00:20:11;;;;;;;;;;;24.90;75.90;;;;;;5018064;28;88167;-51
2021/06/23 00:22:37;;;;;;;;;;;24.90;75.90;;;;;;5018388;28;88021;-51
2021/06/23 00:25:02;;;;;;;;;;;24.90;75.90;;;;;;5017414;28;87129;-53
2021/06/23 00:27:28;;;;;;;;;;;24.90;75.90;;;;;;5021036;28;88274;-49
2021/06/23 00:29:54;;;;;;;;;;;24.80;75.80;;;;;;5015869;28;89376;-50
2021/06/23 00:32:20;;;;;;;;;;;24.80;75.80;;;;;;5017556;28;88210;-51
2021/06/23 00:34:46;;;;;;;;;;;24.80;75.80;;;;;;5016930;28;87132;-50
2021/06/23 00:37:12;;;;;;;;;;;24.80;75.90;;;;;;5018730;28;88494;-54
2021/06/23 00:39:37;;;;;;;;;;;24.80;76.00;;;;;;5016906;28;87827;-52
2021/06/23 00:42:04;;;;;;;;;;;24.80;75.90;;;;;;5017970;28;87213;-53
2021/06/23 00:44:29;;;;;;;;;;;24.80;75.80;;;;;;5018191;28;88864;-52
2021/06/23 00:46:55;;;;;;;;;;;24.70;75.90;;;;;;5016315;28;87372;-51
2021/06/23 00:49:21;;;;;;;;;;;24.70;75.90;;;;;;5021729;28;87254;-54
2021/06/23 00:51:46;;;;;;;;;;;24.70;75.90;;;;;;5017860;28;87812;-52
2021/06/23 00:54:13;;;;;;;;;;;24.70;75.90;;;;;;5020715;28;88124;-51
2021/06/23 00:56:39;;;;;;;;;;;24.70;75.90;;;;;;5022524;28;88997;-52
2021/06/23 00:59:05;;;;;;;;;;;24.60;75.80;;;;;;5021286;28;89735;-50
2021/06/23 01:01:32;;;;;;;;;;;24.60;75.90;;;;;;5022111;28;87237;-54
2021/06/23 01:03:59;;;;;;;;;;;24.60;75.80;;;;;;5021719;28;87472;-51
2021/06/23 01:06:24;;;;;;;;;;;24.60;75.80;;;;;;5019546;28;88086;-50
2021/06/23 01:08:50;;;;;;;;;;;24.60;75.80;;;;;;5021662;28;87190;-53
2021/06/23 01:11:16;;;;;;;;;;;24.60;75.90;;;;;;5026181;28;88657;-51
2021/06/23 01:13:45;;;;;;;;;;;24.60;75.90;;;;;;5022108;28;87291;-51
2021/06/23 01:16:12;;;;;;;;;;;24.50;75.70;;;;;;5021691;28;88930;-53
2021/06/23 01:18:39;;;;;;;;;;;24.60;75.80;;;;;;5020001;28;89047;-52
2021/06/23 01:21:05;;;;;;;;;;;24.50;75.70;;;;;;5020493;28;88724;-50
2021/06/23 01:23:31;;;;;;;;;;;24.50;75.70;;;;;;5019007;28;88690;-51
2021/06/23 01:25:56;;;;;;;;;;;24.50;75.80;;;;;;5021612;28;89546;-51
2021/06/23 01:28:22;;;;;;;;;;;24.50;75.70;;;;;;5019343;28;88822;-53
2021/06/23 01:30:48;;;;;;;;;;;24.50;75.80;;;;;;5018377;28;87555;-53
2021/06/23 01:33:13;;;;;;;;;;;24.40;75.80;;;;;;5021382;28;90515;-50
2021/06/23 01:35:39;;;;;;;;;;;24.40;75.70;;;;;;5020664;28;88491;-52
2021/06/23 01:38:05;;;;;;;;;;;24.40;75.90;;;;;;5020480;28;87772;-52
2021/06/23 01:40:31;;;;;;;;;;;24.40;75.80;;;;;;5022578;28;87220;-52
2021/06/23 01:42:56;;;;;;;;;;;24.40;75.80;;;;;;5020886;28;89068;-51
2021/06/23 01:45:22;;;;;;;;;;;24.40;75.80;;;;;;5018178;28;87927;-50
2021/06/23 01:47:48;;;;;;;;;;;24.30;75.70;;;;;;5019664;28;87161;-51
2021/06/23 01:50:13;;;;;;;;;;;24.30;75.80;;;;;;5019660;28;88581;-50
2021/06/23 01:52:40;;;;;;;;;;;24.30;75.70;;;;;;5019059;28;87901;-51
2021/06/23 01:55:06;;;;;;;;;;;24.30;75.70;;;;;;5021496;28;87165;-51
2021/06/23 01:57:37;;;;;;;;;;;24.30;75.70;;;;;;5017826;28;89638;-51
2021/06/23 02:00:03;;;;;;;;;;;24.30;75.80;;;;;;5018906;28;86481;-51
2021/06/23 02:02:29;;;;;;;;;;;24.30;75.90;;;;;;5017804;28;89288;-54
2021/06/23 02:05:03;;;;;;;;;;;24.30;75.90;;;;;;5016796;28;87923;-50
2021/06/23 02:07:39;;;;;;;;;;;24.20;75.70;;;;;;5019317;28;88080;-51
2021/06/23 02:10:14;;;;;;;;;;;24.20;75.70;;;;;;5020305;28;88846;-51
2021/06/23 02:12:54;;;;;;;;;;;24.20;75.70;;;;;;5021004;28;89348;-52
2021/06/23 02:15:20;;;;;;;;;;;24.20;75.70;;;;;;5021052;28;88788;-50
2021/06/23 02:17:46;;;;;;;;;;;24.20;75.70;;;;;;5024021;28;87725;-51
2021/06/23 02:20:12;;;;;;;;;;;24.20;75.80;;;;;;5019438;28;87999;-52
2021/06/23 02:22:38;;;;;;;;;;;24.10;75.70;;;;;;5018432;28;87943;-51
2021/06/23 02:25:05;;;;;;;;;;;24.10;75.80;;;;;;5022472;28;87085;-52
2021/06/23 02:27:31;;;;;;;;;;;24.10;75.70;;;;;;5018369;28;87171;-51
2021/06/23 02:29:57;;;;;;;;;;;24.10;75.80;;;;;;5018566;28;87211;-51
2021/06/23 02:32:24;;;;;;;;;;;24.10;75.70;;;;;;5018190;28;88562;-53
2021/06/23 02:34:51;;;;;;;;;;;24.10;75.80;;;;;;5017587;28;87158;-52
2021/06/23 02:37:16;;;;;;;;;;;24.10;75.70;;;;;;5020491;28;88400;-51
2021/06/23 02:39:42;;;;;;;;;;;24.10;75.70;;;;;;5018501;28;88298;-54
2021/06/23 02:42:08;;;;;;;;;;;24.00;75.60;;;;;;5017111;28;87322;-51
2021/06/23 02:44:34;;;;;;;;;;;24.00;75.60;;;;;;5016665;28;89694;-50
2021/06/23 02:47:00;;;;;;;;;;;24.00;75.60;;;;;;5017332;28;88678;-51
2021/06/23 02:49:25;;;;;;;;;;;24.00;75.80;;;;;;5016923;28;90256;-52
2021/06/23 02:51:52;;;;;;;;;;;23.90;75.60;;;;;;5017472;28;88210;-51
2021/06/23 02:54:18;;;;;;;;;;;23.90;75.60;;;;;;5017225;28;87275;-52
2021/06/23 02:56:44;;;;;;;;;;;23.90;75.60;;;;;;5019843;28;89023;-52
2021/06/23 02:59:10;;;;;;;;;;;23.90;75.70;;;;;;5021647;28;88942;-51
2021/06/23 03:01:36;;;;;;;;;;;23.90;75.70;;;;;;5016494;28;89009;-52
2021/06/23 03:04:01;;;;;;;;;;;23.90;75.70;;;;;;5016010;28;89015;-52
2021/06/23 03:06:27;;;;;;;;;;;23.90;75.70;;;;;;5018974;28;87982;-50
2021/06/23 03:08:52;;;;;;;;;;;23.90;75.70;;;;;;5021547;28;88773;-50
2021/06/23 03:11:18;;;;;;;;;;;23.90;75.70;;;;;;5020094;28;87589;-51
2021/06/23 03:13:43;;;;;;;;;;;23.80;75.80;;;;;;5020845;28;86569;-52
2021/06/23 03:16:09;;;;;;;;;;;23.80;75.70;;;;;;5018763;28;88859;-51
2021/06/23 03:18:35;;;;;;;;;;;23.80;75.70;;;;;;5015933;28;88407;-52
2021/06/23 03:21:02;;;;;;;;;;;23.80;75.70;;;;;;5019385;28;88081;-51
2021/06/23 03:23:28;;;;;;;;;;;23.80;75.70;;;;;;5016062;28;89060;-50
2021/06/23 03:25:53;;;;;;;;;;;23.80;75.60;;;;;;5016991;28;87179;-53
2021/06/23 03:28:19;;;;;;;;;;;23.70;75.70;;;;;;5017032;28;88571;-51
2021/06/23 03:30:45;;;;;;;;;;;23.70;75.70;;;;;;5016164;28;87610;-50
2021/06/23 03:33:10;;;;;;;;;;;23.70;75.80;;;;;;5017040;28;87179;-50
2021/06/23 03:35:36;;;;;;;;;;;23.70;75.60;;;;;;5018447;28;87156;-50
2021/06/23 03:38:02;;;;;;;;;;;23.70;75.70;;;;;;5019485;28;87419;-51
2021/06/23 03:40:27;;;;;;;;;;;23.70;75.70;;;;;;5018181;28;87184;-55
2021/06/23 03:42:53;;;;;;;;;;;23.70;75.60;;;;;;5021396;28;88410;-50
2021/06/23 03:45:19;;;;;;;;;;;23.70;75.80;;;;;;5019061;28;88074;-50
2021/06/23 03:47:45;;;;;;;;;;;23.60;75.70;;;;;;5020427;28;90091;-52
2021/06/23 03:50:11;;;;;;;;;;;23.60;75.70;;;;;;5019961;28;89754;-51
2021/06/23 03:52:37;;;;;;;;;;;23.60;75.70;;;;;;5020121;28;87146;-53
2021/06/23 03:55:08;;;;;;;;;;;23.60;75.60;;;;;;4997510;28;87181;-50
2021/06/23 03:57:33;;;;;;;;;;;23.60;75.70;;;;;;4997927;28;88080;-54
2021/06/23 03:59:59;;;;;;;;;;;23.60;75.80;;;;;;4997423;28;87132;-50
2021/06/23 04:02:24;;;;;;;;;;;23.60;75.60;;;;;;4997372;28;87443;-52
2021/06/23 04:04:50;;;;;;;;;;;23.50;75.70;;;;;;5000082;28;89490;-50
2021/06/23 04:07:16;;;;;;;;;;;23.50;75.60;;;;;;4998878;28;87233;-52
2021/06/23 04:09:42;;;;;;;;;;;23.50;75.70;;;;;;4998591;28;88496;-52
2021/06/23 04:12:08;;;;;;;;;;;23.50;75.60;;;;;;4999070;28;87215;-53
2021/06/23 04:14:34;;;;;;;;;;;23.50;75.70;;;;;;4997690;28;87642;-51
2021/06/23 04:16:59;;;;;;;;;;;23.50;75.70;;;;;;4996462;28;88126;-54
2021/06/23 04:19:25;;;;;;;;;;;23.50;75.60;;;;;;4997477;28;87209;-53
2021/06/23 04:21:50;;;;;;;;;;;23.50;75.70;;;;;;4997737;28;88155;-50
2021/06/23 04:24:16;;;;;;;;;;;23.50;75.70;;;;;;4996627;28;89665;-51
2021/06/23 04:26:43;;;;;;;;;;;23.50;75.80;;;;;;5002199;28;86507;-54
2021/06/23 04:29:09;;;;;;;;;;;23.40;75.70;;;;;;5000050;28;88593;-51
2021/06/23 04:31:35;;;;;;;;;;;23.40;75.80;;;;;;5002428;28;88013;-51
2021/06/23 04:34:00;;;;;;;;;;;23.40;75.70;;;;;;5003140;28;88125;-55
2021/06/23 04:36:26;;;;;;;;;;;23.40;75.70;;;;;;5002510;28;88090;-51
2021/06/23 04:38:51;;;;;;;;;;;23.40;75.70;;;;;;5003140;28;87184;-53
2021/06/23 04:41:17;;;;;;;;;;;23.40;75.80;;;;;;5001170;28;88828;-49
2021/06/23 04:43:43;;;;;;;;;;;23.40;76.30;;;;;;4998566;28;88338;-55
2021/06/23 04:46:08;;;;;;;;;;;23.40;75.80;;;;;;5004030;28;88433;-52
2021/06/23 04:48:34;;;;;;;;;;;23.40;75.80;;;;;;4999243;28;88202;-52
2021/06/23 04:51:00;;;;;;;;;;;23.40;75.80;;;;;;5002634;28;88191;-51
2021/06/23 04:53:25;;;;;;;;;;;23.40;75.80;;;;;;5002713;28;87705;-52
2021/06/23 04:55:53;;;;;;;;;;;23.40;75.90;;;;;;5000893;28;88134;-49
2021/06/23 04:58:19;;;;;;;;;;;23.40;75.90;;;;;;5001366;28;88129;-51
2021/06/23 05:00:44;;;;;;;;;;;23.40;75.90;;;;;;5002502;28;88744;-52
2021/06/23 05:03:10;;;;;;;;;;;23.40;75.90;;;;;;5001342;28;89634;-52
2021/06/23 05:05:35;;;;;;;;;;;23.30;76.00;;;;;;5002311;28;87217;-53
2021/06/23 05:08:01;;;;;;;;;;;23.40;76.10;;;;;;5005431;28;87213;-54
2021/06/23 05:10:26;;;;;;;;;;;23.30;76.00;;;;;;5001150;28;88610;-51
2021/06/23 05:12:52;;;;;;;;;;;23.40;76.10;;;;;;4998354;28;87190;-50
2021/06/23 05:15:18;;;;;;;;;;;23.40;76.20;;;;;;4999730;28;86935;-56
2021/06/23 05:17:43;;;;;;;;;;;23.30;76.20;;;;;;4999154;28;87196;-50
2021/06/23 05:20:09;;;;;;;;;;;23.40;76.30;;;;;;4999947;28;89362;-50
2021/06/23 05:22:35;;;;;;;;;;;23.40;76.20;;;;;;4999579;28;90026;-55
2021/06/23 05:25:01;;;;;;;;;;;23.40;76.40;;;;;;5000591;28;87189;-50
2021/06/23 05:27:27;;;;;;;;;;;23.40;76.40;;;;;;4999713;28;87582;-53
2021/06/23 05:29:53;;;;;;;;;;;23.40;76.50;;;;;;5001503;28;89529;-50
2021/06/23 05:32:18;;;;;;;;;;;23.40;76.50;;;;;;4999284;28;88731;-50
2021/06/23 05:37:28;;;;;;;;;;;23.40;76.60;;;;;;5000240;28;87215;-50
2021/06/23 05:39:53;;;;;;;;;;;23.40;76.60;;;;;;5001847;28;88705;-51
2021/06/23 05:42:19;;;;;;;;;;;23.40;76.60;;;;;;5001615;28;89423;-53
2021/06/23 05:44:45;;;;;;;;;;;23.40;76.60;;;;;;5002308;28;87261;-50
2021/06/23 05:47:10;;;;;;;;;;;23.40;76.60;;;;;;5001827;28;88101;-52
2021/06/23 05:49:36;;;;;;;;;;;23.40;76.60;;;;;;4999416;28;88451;-52
2021/06/23 05:52:03;;;;;;;;;;;23.40;76.70;;;;;;5004777;28;88383;-52
2021/06/23 05:54:29;;;;;;;;;;;23.40;76.70;;;;;;4999193;28;89354;-51
2021/06/23 05:56:54;;;;;;;;;;;23.40;76.70;;;;;;5000140;28;87212;-51
2021/06/23 05:59:20;;;;;;;;;;;23.40;76.70;;;;;;5001290;28;88765;-54
2021/06/23 06:01:45;;;;;;;;;;;23.40;76.80;;;;;;5000737;28;88571;-50
2021/06/23 06:04:11;;;;;;;;;;;23.40;76.80;;;;;;5001702;28;86425;-51
2021/06/23 06:06:36;;;;;;;;;;;23.40;76.90;;;;;;5001794;28;88808;-50
2021/06/23 06:09:02;;;;;;;;;;;23.50;76.90;;;;;;4998485;28;88131;-51
2021/06/23 06:11:28;;;;;;;;;;;23.40;76.80;;;;;;4996991;28;88107;-50
2021/06/23 06:13:54;;;;;;;;;;;23.40;76.90;;;;;;5000356;28;90284;-49
2021/06/23 06:16:19;;;;;;;;;;;23.50;77.00;;;;;;4998072;28;87202;-51
2021/06/23 06:18:46;;;;;;;;;;;23.50;77.10;;;;;;4999591;28;87232;-50
2021/06/23 06:21:12;;;;;;;;;;;23.50;77.00;;;;;;4998316;28;89373;-51
2021/06/23 06:23:37;;;;;;;;;;;23.50;77.10;;;;;;5000036;28;87145;-51
2021/06/23 06:26:03;;;;;;;;;;;23.50;77.10;;;;;;5001334;28;87691;-51
2021/06/23 06:28:28;;;;;;;;;;;23.50;77.20;;;;;;5001594;28;88458;-52
2021/06/23 06:30:54;;;;;;;;;;;23.50;77.20;;;;;;4998319;28;88029;-50
2021/06/23 06:33:20;;;;;;;;;;;23.50;77.20;;;;;;4999953;28;87218;-51
2021/06/23 06:35:45;;;;;;;;;;;23.50;77.30;;;;;;4996304;28;88076;-49
2021/06/23 06:38:11;;;;;;;;;;;23.50;77.20;;;;;;4998210;28;87811;-51
2021/06/23 06:40:37;;;;;;;;;;;23.50;77.10;;;;;;4997420;28;88017;-52
2021/06/23 06:43:02;;;;;;;;;;;23.50;77.20;;;;;;4998690;28;87157;-50
2021/06/23 06:45:28;;;;;;;;;;;23.60;77.30;;;;;;4998804;28;87422;-50
2021/06/23 06:47:54;;;;;;;;;;;23.60;77.40;;;;;;4998672;28;87453;-50
2021/06/23 06:50:19;;;;;;;;;;;23.60;77.30;;;;;;4998366;28;87195;-50
2021/06/23 06:52:45;;;;;;;;;;;23.60;77.50;;;;;;5000353;28;88564;-50
2021/06/23 06:55:11;;;;;;;;;;;23.60;77.40;;;;;;5002914;28;87697;-50
2021/06/23 06:57:36;;;;;;;;;;;23.60;77.40;;;;;;4999673;28;89015;-52
2021/06/23 07:00:03;;;;;;;;;;;23.60;77.40;;;;;;4999870;28;90784;-50
2021/06/23 07:02:29;;;;;;;;;;;23.60;77.20;;;;;;4998146;28;87162;-50
2021/06/23 07:04:54;;;;;;;;;;;23.60;77.50;;;;;;4997772;28;87202;-51
2021/06/23 07:07:20;;;;;;;;;;;23.60;77.40;;;;;;4996325;28;89625;-50
2021/06/23 07:09:46;;;;;;;;;;;23.70;77.40;;;;;;4996970;28;87203;-50
2021/06/23 07:12:11;;;;;;;;;;;23.70;77.40;;;;;;4997565;28;88705;-51
2021/06/23 07:14:37;;;;;;;;;;;23.70;77.60;;;;;;4996930;28;90275;-51
2021/06/23 07:17:03;;;;;;;;;;;23.70;77.50;;;;;;5001673;28;86434;-53
2021/06/23 07:19:28;;;;;;;;;;;23.70;77.40;;;;;;4997291;28;87150;-52
2021/06/23 07:21:54;;;;;;;;;;;23.70;77.30;;;;;;4997923;28;87195;-51
2021/06/23 07:24:20;;;;;;;;;;;23.70;77.40;;;;;;4996763;28;88134;-51
2021/06/23 07:26:48;;;;;;;;;;;23.70;77.50;;;;;;4996010;28;87265;-50
2021/06/23 07:29:14;;;;;;;;;;;23.70;77.40;;;;;;4999584;28;88398;-52
2021/06/23 07:36:42;;;;;;;;;;;23.70;77.50;;;;;;4998268;28;87173;-49
2021/06/23 07:39:09;;;;;;;;;;;23.80;77.90;;;;;;5002017;28;88452;-50
2021/06/23 07:41:35;;;;;;;;;;;23.80;77.80;;;;;;4997705;28;86457;-51
2021/06/23 07:44:00;;;;;;;;;;;23.80;77.70;;;;;;4997334;28;87191;-52
2021/06/23 07:46:28;;;;;;;;;;;23.80;77.50;;;;;;4997164;28;89107;-51
2021/06/23 07:48:55;;;;;;;;;;;23.80;77.80;;;;;;4995513;28;89016;-51
2021/06/23 07:51:29;;;;;;;;;;;23.80;77.70;;;;;;4999744;28;89988;-50
2021/06/23 08:02:43;;;;;;;;;;;23.90;78.10;;;;;;5003983;28;87168;-51
2021/06/23 08:10:40;;;;;;;;;;;23.90;77.90;;;;;;5001942;28;87984;-50
2021/06/23 08:13:03;;;;;;;;;;;23.90;77.90;;;;;;4999678;28;88886;-54
2021/06/23 08:15:30;;;;;;;;;;;23.90;77.80;;;;;;4999409;28;89108;-50
2021/06/23 08:17:56;;;;;;;;;;;23.90;77.90;;;;;;5001363;28;87201;-49
2021/06/23 08:20:21;;;;;;;;;;;23.90;77.80;;;;;;5000139;28;88505;-54
2021/06/23 08:22:47;;;;;;;;;;;24.00;77.90;;;;;;4999270;28;89549;-50
2021/06/23 08:25:13;;;;;;;;;;;24.00;78.00;;;;;;5002252;28;87215;-50
2021/06/23 08:27:39;;;;;;;;;;;23.90;78.00;;;;;;4998585;28;88661;-51
2021/06/23 08:30:06;;;;;;;;;;;24.00;78.00;;;;;;5000885;28;88165;-55
2021/06/23 08:32:31;;;;;;;;;;;24.00;78.00;;;;;;5003493;28;88301;-52
2021/06/23 08:34:57;;;;;;;;;;;24.00;78.10;;;;;;5002010;28;88645;-50
2021/06/23 08:37:22;;;;;;;;;;;24.00;78.10;;;;;;4998795;28;88150;-51
2021/06/23 08:39:48;;;;;;;;;;;24.10;78.20;;;;;;4999408;28;88124;-54
2021/06/23 08:42:13;;;;;;;;;;;24.10;78.40;;;;;;5000833;28;88335;-51
2021/06/23 08:44:39;;;;;;;;;;;24.10;78.00;;;;;;5005365;28;87166;-53
2021/06/23 08:47:04;;;;;;;;;;;24.10;78.00;;;;;;5003137;28;88461;-50
2021/06/23 08:49:30;;;;;;;;;;;24.20;78.10;;;;;;5001336;28;87797;-53
2021/06/23 08:51:56;;;;;;;;;;;24.20;78.00;;;;;;5001596;28;89355;-50
2021/06/23 08:54:22;;;;;;;;;;;24.20;78.00;;;;;;5000165;28;88862;-53
2021/06/23 08:56:48;;;;;;;;;;;24.20;78.30;;;;;;4999624;28;88391;-51
2021/06/23 08:59:14;;;;;;;;;;;24.20;78.30;;;;;;5001100;28;88094;-50
2021/06/23 09:01:42;;;;;;;;;;;24.20;78.30;;;;;;4999037;28;88253;-52
2021/06/23 09:04:18;;;;;;;;;;;24.10;78.40;;;;;;5001249;28;88188;-50
2021/06/23 09:06:54;;;;;;;;;;;24.20;78.30;;;;;;5004651;28;89802;-51
2021/06/23 09:09:21;;;;;;;;;;;24.20;78.10;;;;;;5002613;28;87916;-54
2021/06/23 09:11:48;;;;;;;;;;;24.30;78.70;;;;;;5000449;28;87583;-51
2021/06/23 09:14:14;;;;;;;;;;;24.30;77.90;;;;;;4999199;28;88539;-50
2021/06/23 09:16:58;;;;;;;;;;;24.30;78.10;;;;;;4997848;28;87375;-51
2021/06/23 09:19:30;;;;;;;;;;;24.30;77.80;;;;;;5002158;28;88778;-53
2021/06/23 09:21:56;;;;;;;;;;;24.30;77.60;;;;;;5000240;28;89279;-51
2021/06/23 09:24:33;;;;;;;;;;;24.30;77.20;;;;;;5001131;28;87199;-49
2021/06/23 09:26:59;;;;;;;;;;;24.40;77.60;;;;;;4999998;28;87166;-51
2021/06/23 09:29:24;;;;;;;;;;;24.40;75.90;;;;;;5002410;28;90320;-51
2021/06/23 09:31:57;;;;;;;;;;;24.40;76.80;;;;;;5001937;28;88028;-50
2021/06/23 09:34:26;;;;;;;;;;;24.40;76.80;;;;;;4999074;28;89464;-52
2021/06/23 09:36:51;;;;;;;;;;;24.40;76.10;;;;;;4999999;28;87689;-50
2021/06/23 09:39:19;;;;;;;;;;;24.50;76.20;;;;;;4997861;28;88977;-50
2021/06/23 09:41:44;;;;;;;;;;;24.50;76.70;;;;;;5000735;28;89917;-51
2021/06/23 09:44:11;;;;;;;;;;;24.50;76.70;;;;;;4999682;28;88432;-50
2021/06/23 09:46:40;;;;;;;;;;;24.50;76.40;;;;;;5000948;28;89439;-50
2021/06/23 09:49:05;;;;;;;;;;;24.50;76.30;;;;;;4998590;28;89302;-49
2021/06/23 09:51:40;;;;;;;;;;;24.50;76.00;;;;;;5001438;28;87229;-50
2021/06/23 09:54:06;;;;;;;;;;;24.60;76.20;;;;;;4998853;28;90428;-49
2021/06/23 09:56:34;;;;;;;;;;;24.60;75.70;;;;;;4999087;28;87116;-50
2021/06/23 09:59:00;;;;;;;;;;;24.60;75.70;;;;;;5001604;28;88520;-49
2021/06/23 10:01:26;;;;;;;;;;;24.60;75.80;;;;;;5000813;28;89437;-51
2021/06/23 10:03:53;;;;;;;;;;;24.60;75.90;;;;;;5001058;28;87204;-51
2021/06/23 10:06:28;;;;;;;;;;;24.70;75.70;;;;;;4998910;28;87385;-51
2021/06/23 10:09:14;;;;;;;;;;;24.70;75.80;;;;;;4997558;28;87691;-51
2021/06/23 10:11:41;;;;;;;;;;;24.70;75.60;;;;;;4999411;28;86477;-50
2021/06/23 10:14:08;;;;;;;;;;;24.70;75.50;;;;;;4999673;28;88172;-52
2021/06/23 10:16:37;;;;;;;;;;;24.70;75.30;;;;;;5000958;28;87170;-52
2021/06/23 10:19:03;;;;;;;;;;;24.80;75.60;;;;;;4996497;28;88067;-53
2021/06/23 10:21:30;;;;;;;;;;;24.80;75.80;;;;;;5001887;28;88284;-51
2021/06/23 10:23:56;;;;;;;;;;;24.80;76.00;;;;;;4998496;28;87119;-49
2021/06/23 10:26:22;;;;;;;;;;;24.80;75.80;;;;;;4998331;28;87193;-50
2021/06/23 10:28:49;;;;;;;;;;;24.80;75.20;;;;;;4996770;28;87641;-51
2021/06/23 10:31:16;;;;;;;;;;;24.80;75.50;;;;;;5000532;28;87159;-50
2021/06/23 10:33:41;;;;;;;;;;;24.80;75.20;;;;;;4998320;28;88663;-53
2021/06/23 10:36:07;;;;;;;;;;;24.90;75.00;;;;;;5000218;28;88490;-51
2021/06/23 10:38:33;;;;;;;;;;;24.90;75.20;;;;;;4997842;28;88687;-52
2021/06/23 10:40:59;;;;;;;;;;;24.90;75.00;;;;;;5001422;28;87638;-50
2021/06/23 10:43:25;;;;;;;;;;;25.00;74.90;;;;;;5000589;28;88103;-51
2021/06/23 10:45:53;;;;;;;;;;;24.90;75.60;;;;;;5000919;28;89726;-52
2021/06/23 10:48:19;;;;;;;;;;;24.90;75.30;;;;;;4996879;28;89601;-50
2021/06/23 10:50:44;;;;;;;;;;;25.00;75.00;;;;;;5001174;28;87764;-51
2021/06/23 10:53:29;;;;;;;;;;;25.00;74.40;;;;;;4999937;28;88759;-52
2021/06/23 10:55:55;;;;;;;;;;;25.00;74.40;;;;;;5001805;28;88029;-52
2021/06/23 10:58:25;;;;;;;;;;;25.00;74.80;;;;;;5001433;28;87308;-51
2021/06/23 11:01:04;;;;;;;;;;;25.00;75.30;;;;;;5000649;28;87237;-51
2021/06/23 11:03:29;;;;;;;;;;;25.10;75.10;;;;;;4996811;28;87186;-51
2021/06/23 11:05:55;;;;;;;;;;;25.10;74.80;;;;;;4997324;28;87961;-50
2021/06/23 11:08:23;;;;;;;;;;;25.10;74.80;;;;;;4997487;28;90298;-51
2021/06/23 11:10:49;;;;;;;;;;;25.10;74.70;;;;;;4999118;28;87147;-53
2021/06/23 11:13:19;;;;;;;;;;;25.10;74.40;;;;;;4998635;28;87291;-50
2021/06/23 11:15:48;;;;;;;;;;;25.20;74.40;;;;;;4998793;28;89571;-51
2021/06/23 11:18:22;;;;;;;;;;;25.20;74.30;;;;;;5002070;28;87203;-52
2021/06/23 11:20:48;;;;;;;;;;;25.20;74.20;;;;;;5000528;28;89738;-53
2021/06/23 11:23:33;;;;;;;;;;;25.20;74.00;;;;;;5000567;28;87190;-52
2021/06/23 11:25:58;;;;;;;;;;;25.30;74.10;;;;;;4996959;28;87528;-51
2021/06/23 11:28:24;;;;;;;;;;;25.30;74.90;;;;;;4996464;28;88873;-52
2021/06/23 11:30:49;;;;;;;;;;;25.30;74.20;;;;;;5001196;28;87206;-50
2021/06/23 11:33:27;;;;;;;;;;;25.30;73.70;;;;;;5000271;28;88103;-50
2021/06/23 11:35:55;;;;;;;;;;;25.30;73.70;;;;;;4997479;28;89483;-51
2021/06/23 11:38:21;;;;;;;;;;;25.30;73.70;;;;;;5000370;28;87246;-51
2021/06/23 11:40:47;;;;;;;;;;;25.30;74.00;;;;;;5001856;28;89365;-51
2021/06/23 11:43:13;;;;;;;;;;;25.30;74.30;;;;;;4998036;28;87183;-51
2021/06/23 11:45:38;;;;;;;;;;;25.30;73.30;;;;;;4997716;28;87260;-51
2021/06/23 11:48:04;;;;;;;;;;;25.30;74.30;;;;;;4997600;28;89419;-50
2021/06/23 11:50:29;;;;;;;;;;;25.40;73.50;;;;;;4997146;28;86452;-54
2021/06/23 11:52:55;;;;;;;;;;;25.40;74.00;;;;;;4997238;28;87268;-52
2021/06/23 11:55:24;;;;;;;;;;;25.40;73.60;;;;;;4997665;28;87638;-50
2021/06/23 11:57:54;;;;;;;;;;;25.50;73.80;;;;;;4998593;28;88127;-51
2021/06/23 12:00:20;;;;;;;;;;;25.50;73.10;;;;;;4998049;28;89748;-51
2021/06/23 12:02:45;;;;;;;;;;;25.50;73.60;;;;;;4999053;28;87504;-51
2021/06/23 12:05:11;;;;;;;;;;;25.50;73.30;;;;;;4998609;28;88138;-50
2021/06/23 12:07:37;;;;;;;;;;;25.60;73.00;;;;;;4998462;28;89026;-52
2021/06/23 12:10:03;;;;;;;;;;;25.60;73.10;;;;;;4998842;28;87981;-51
2021/06/23 12:12:29;;;;;;;;;;;25.60;73.00;;;;;;5000023;28;87189;-50
2021/06/23 12:14:55;;;;;;;;;;;25.60;73.70;;;;;;4999201;28;88804;-52
2021/06/23 12:17:20;;;;;;;;;;;25.60;73.20;;;;;;4999193;28;87197;-52
2021/06/23 12:19:46;;;;;;;;;;;25.60;72.40;;;;;;4999044;28;87733;-50
2021/06/23 12:22:12;;;;;;;;;;;25.60;73.60;;;;;;4996189;28;89540;-51
2021/06/23 12:24:38;;;;;;;;;;;25.60;73.10;;;;;;4998913;28;87242;-50
2021/06/23 12:27:04;;;;;;;;;;;25.60;73.80;;;;;;4995111;28;87600;-51
2021/06/23 12:29:29;;;;;;;;;;;25.60;73.00;;;;;;4995493;28;87180;-49
2021/06/23 12:31:55;;;;;;;;;;;25.60;73.00;;;;;;4996398;28;88793;-53
2021/06/23 12:34:20;;;;;;;;;;;25.60;72.70;;;;;;4999610;28;89198;-52
2021/06/23 12:36:46;;;;;;;;;;;25.60;73.20;;;;;;4999894;28;87197;-51
2021/06/23 12:39:12;;;;;;;;;;;25.60;73.20;;;;;;4999518;28;86812;-50
2021/06/23 12:41:37;;;;;;;;;;;25.60;72.90;;;;;;4998862;28;88064;-51
2021/06/23 12:44:03;;;;;;;;;;;25.60;73.30;;;;;;4998826;28;87174;-50
2021/06/23 12:46:29;;;;;;;;;;;25.70;73.30;;;;;;4999643;28;89476;-53
2021/06/23 12:48:54;;;;;;;;;;;25.70;72.80;;;;;;4999720;28;87190;-52
2021/06/23 12:51:20;;;;;;;;;;;25.60;73.00;;;;;;4998835;28;88581;-50
2021/06/23 12:53:46;;;;;;;;;;;25.70;72.90;;;;;;4998456;28;88741;-51
2021/06/23 12:56:11;;;;;;;;;;;25.70;72.90;;;;;;4998402;28;87183;-51
2021/06/23 12:58:37;;;;;;;;;;;25.70;73.40;;;;;;4998932;28;89184;-51
2021/06/23 13:01:03;;;;;;;;;;;25.70;73.30;;;;;;5000368;28;91456;-50
2021/06/23 13:03:28;;;;;;;;;;;25.70;73.00;;;;;;5001802;28;87776;-51
2021/06/23 13:05:58;;;;;;;;;;;25.70;73.30;;;;;;5005662;28;87986;-50
2021/06/23 13:08:23;;;;;;;;;;;25.70;73.00;;;;;;4999292;28;87901;-51
2021/06/23 13:10:49;;;;;;;;;;;25.80;72.70;;;;;;4998399;28;88069;-52
2021/06/23 13:13:14;;;;;;;;;;;25.80;72.70;;;;;;4998076;28;88253;-50
2021/06/23 13:15:40;;;;;;;;;;;25.90;72.10;;;;;;4999301;28;87455;-50
2021/06/23 13:18:07;;;;;;;;;;;25.90;72.60;;;;;;5001733;28;88889;-52
2021/06/23 13:20:35;;;;;;;;;;;26.00;71.70;;;;;;5000541;28;89183;-53
2021/06/23 13:23:00;;;;;;;;;;;26.00;71.60;;;;;;5001350;28;88871;-52
2021/06/23 13:25:26;;;;;;;;;;;26.00;72.10;;;;;;4999202;28;92173;-52
2021/06/23 13:27:52;;;;;;;;;;;26.10;71.90;;;;;;5002279;28;94112;-51
2021/06/23 13:30:18;;;;;;;;;;;26.10;71.30;;;;;;4998347;28;93426;-50
2021/06/23 13:32:44;;;;;;;;;;;26.10;71.40;;;;;;4996469;28;93798;-51
2021/06/23 13:35:10;;;;;;;;;;;26.10;71.00;;;;;;4996417;28;93143;-49
2021/06/23 13:37:36;;;;;;;;;;;26.20;70.60;;;;;;4994959;28;94782;-50
2021/06/23 13:40:03;;;;;;;;;;;26.20;71.70;;;;;;4995237;28;94036;-52
2021/06/23 13:42:30;;;;;;;;;;;26.20;70.70;;;;;;4994982;28;92212;-50
2021/06/23 13:44:55;;;;;;;;;;;26.20;71.50;;;;;;4998166;28;93785;-51
2021/06/23 13:47:21;;;;;;;;;;;26.20;70.90;;;;;;4997057;28;92722;-54
2021/06/23 13:49:48;;;;;;;;;;;26.20;70.90;;;;;;4999636;28;92220;-51
2021/06/23 13:52:14;;;;;;;;;;;26.30;70.90;;;;;;4995348;28;94455;-53
2021/06/23 13:54:40;;;;;;;;;;;26.30;70.70;;;;;;4998992;28;92236;-50
2021/06/23 13:57:08;;;;;;;;;;;26.30;70.60;;;;;;4998545;28;92490;-50
2021/06/23 13:59:34;;;;;;;;;;;26.30;70.80;;;;;;4992583;28;95050;-49
2021/06/23 14:02:00;;;;;;;;;;;26.30;70.40;;;;;;4998141;28;93804;-50
2021/06/23 14:04:25;;;;;;;;;;;26.30;70.80;;;;;;4997750;28;93827;-50
2021/06/23 14:06:51;;;;;;;;;;;26.30;70.90;;;;;;4998339;28;94067;-50
2021/06/23 14:09:16;;;;;;;;;;;26.30;70.60;;;;;;4998117;28;92169;-50
2021/06/23 14:11:42;;;;;;;;;;;26.30;70.60;;;;;;5000345;28;92169;-51
2021/06/23 14:14:07;;;;;;;;;;;26.40;71.20;;;;;;4998780;28;92187;-49
2021/06/23 14:16:33;;;;;;;;;;;26.40;70.60;;;;;;4996158;28;92896;-50
2021/06/23 14:18:58;;;;;;;;;;;26.40;70.30;;;;;;4993941;28;94552;-50
2021/06/23 14:21:24;;;;;;;;;;;26.40;70.20;;;;;;4995667;28;92269;-50
2021/06/23 14:23:49;;;;;;;;;;;26.40;70.00;;;;;;4994432;28;93104;-50
2021/06/23 14:26:15;;;;;;;;;;;26.40;70.60;;;;;;4994987;28;94973;-53
2021/06/23 14:28:41;;;;;;;;;;;26.40;71.00;;;;;;4996182;28;92238;-50
2021/06/23 14:31:06;;;;;;;;;;;26.40;71.00;;;;;;4995317;28;92480;-50
2021/06/23 14:33:32;;;;;;;;;;;26.40;70.70;;;;;;4997821;28;93271;-50